Etusivu
METAR-TAF:

METAR-TAF

Lentoasemat :

Oujda, Marokko

Leveyspiiri: 34-47N, Pituuspiiri: 001-56W, korkeus merenpinnasta: 468 m

Tämänhetkinen sää

Tämä raportti tehtiin 34 minuuttia sitten, kello 01.00 UTC
Tuuli 2 kn eri suunnista
Lämpötila 14°C
Kosteus 58%
Ilmanpaine 1015 hPa
Näkyvyys 10 km tai enemmän
ei pilviä alle 1500 m:ssä eikä cumulonimbus-pilviä

METAR: GMFO 210100Z VRB02KT CAVOK 14/06 Q1015 NOSIG

Aika: 01:34 (01:34 UTC)

Sääennuste

Tämä raportti tehtiin 2 tuntia ja 34 minuuttia sitten, kello 23.00 UTC
Ennuste voimassa 21. päivästä klo 00 UTC - 22. päivään klo 06 UTC
Tuuli 4 kn lounaasta
Näkyvyys 10 km tai enemmän
ei pilviä alle 1500 m:ssä eikä cumulonimbus-pilviä
Tulossa
21. päivästä klo 14 UTC - 21. päivään klo 18 UTC
Tuuli 12 kn pohjoisesta

TAF: GMFO 202300Z 2100/2206 22004KT CAVOK BECMG 2114/2118 36012KT

Säähavainnot ja -ennusteet yli 4000 lentoasemalta (METAR- ja TAF-raportit).

Käytössä olevat sääasemat on merkitty karttaan keltaisilla ja punaisilla pisteillä.

Aseta hiiri pisteen päälle nähdäksesi sääaseman nimen.

Klikkaa sitten nähdäksesi säähavainnot ja -ennusteet.

Kartan vaihtaminen: klikkaa mustalla rastilla varustettuja vihreitä pisteitä, niin voit zoomata sisään; viivalla varustettua vihreää pistettä, niin voit zoomata ulos tai vihreitä nuolia, niin pääset viereisille kartoille.


METAR-TAF: